Time;durP1;ratioP1;P1;durP2;ratioP2;P2;SDS_P1;SDS_P2;PMS_P1;PMS_P2;Temp;Humidity;BMP_temperature;BMP_pressure;BME280_temperature;BME280_humidity;BME280_pressure;Samples;Min_cycle;Max_cycle;Signal;HPM_P1;HPM_P2
2021/11/11 00:00:50;;;;;;;;;;;;;;;5.90;90.48;101035.34;1630114;86;20168;-82
2021/11/11 00:03:16;;;;;;;;;;;;;;;5.99;89.85;101036.55;1637309;86;20200;-81
2021/11/11 00:05:42;;;;;;;;;;;;;;;6.00;89.86;101034.30;1631628;86;20198;-77
2021/11/11 00:08:09;;;;;;;;;;;;;;;5.92;89.90;101022.98;1636682;86;20141;-82
2021/11/11 00:10:35;;;;;;;;;;;;;;;5.95;89.94;101022.78;1635224;86;21155;-88
2021/11/11 00:13:06;;;;;;;;;;;;;;;5.95;89.59;101024.09;1634394;86;20207;-81
2021/11/11 00:15:32;;;;;;;;;;;;;;;6.01;89.54;101026.33;1634116;86;20147;-78
2021/11/11 00:17:59;;;;;;;;;;;;;;;6.06;89.33;101020.73;1634469;86;20277;-79
2021/11/11 00:20:28;;;;;;;;;;;;;;;6.16;88.94;101023.59;1637649;86;20142;-79
2021/11/11 00:22:55;;;;;;;;;;;;;;;6.16;88.71;101022.28;1633911;86;21226;-80
2021/11/11 00:25:21;;;;;;;;;;;;;;;6.13;88.72;101023.31;1633647;86;20146;-77
2021/11/11 00:27:47;;;;;;;;;;;;;;;6.22;88.40;101025.79;1634148;86;20160;-87
2021/11/11 00:30:15;;;;;;;;;;;;;;;6.18;88.07;101022.52;1599724;88;21175;-82
2021/11/11 00:32:41;;;;;;;;;;;;;;;6.24;87.91;101010.77;1606614;88;20242;-80
2021/11/11 00:35:08;;;;;;;;;;;;;;;6.21;87.91;101001.80;1607364;88;21196;-82
2021/11/11 00:37:34;;;;;;;;;;;;;;;6.21;87.87;101003.12;1603896;88;20193;-81
2021/11/11 00:40:00;;;;;;;;;;;;;;;6.22;87.87;101013.50;1607260;88;20211;-80
2021/11/11 00:42:25;;;;;;;;;;;;;;;6.36;87.24;101010.40;1603487;88;20253;-80
2021/11/11 00:44:51;;;;;;;;;;;;;;;6.18;87.63;101012.02;1604021;87;20184;-80
2021/11/11 00:47:17;;;;;;;;;;;;;;;6.22;87.64;101002.19;1602612;88;21136;-83
2021/11/11 00:49:43;;;;;;;;;;;;;;;6.26;87.73;101006.25;1591688;88;20783;-80
2021/11/11 00:52:09;;;;;;;;;;;;;;;6.25;87.51;101009.84;1606404;87;20361;-80
2021/11/11 00:54:35;;;;;;;;;;;;;;;6.22;87.79;101013.50;1602094;88;20589;-79
2021/11/11 00:57:01;;;;;;;;;;;;;;;6.11;87.80;101010.80;1607269;88;20193;-81
2021/11/11 00:59:26;;;;;;;;;;;;;;;6.22;87.72;101003.49;1606624;87;21318;-77
2021/11/11 01:01:52;;;;;;;;;;;;;;;6.25;87.47;101007.22;1609633;88;20152;-79
2021/11/11 01:04:17;;;;;;;;;;;;;;;6.40;86.84;101014.02;1609009;88;20141;-79
2021/11/11 01:06:43;;;;;;;;;;;;;;;6.40;86.48;101016.64;1611923;88;20217;-79
2021/11/11 01:09:08;;;;;;;;;;;;;;;6.38;86.44;101011.95;1584623;88;20170;-80
2021/11/11 01:11:34;;;;;;;;;;;;;;;6.30;86.67;101010.34;1602951;88;21166;-79
2021/11/11 01:14:00;;;;;;;;;;;;;;;6.14;86.88;101012.34;1604066;88;20166;-79
2021/11/11 01:16:25;;;;;;;;;;;;;;;6.21;86.93;101000.02;1607970;88;20162;-83
2021/11/11 01:18:51;;;;;;;;;;;;;;;6.10;87.45;101002.06;1604712;88;20637;-78
2021/11/11 01:21:17;;;;;;;;;;;;;;;6.05;87.49;100998.10;1606240;88;20530;-79
2021/11/11 01:23:42;;;;;;;;;;;;;;;6.00;87.95;100998.42;1606745;87;21853;-79
2021/11/11 01:26:09;;;;;;;;;;;;;;;5.93;88.20;100991.88;1608614;87;20156;-81
2021/11/11 01:28:35;;;;;;;;;;;;;;;5.96;88.23;100996.91;1606095;88;20182;-79
2021/11/11 01:31:00;;;;;;;;;;;;;;;5.99;88.19;101001.98;1610390;87;20268;-79
2021/11/11 01:33:26;;;;;;;;;;;;;;;6.02;88.15;101003.08;1620245;87;20159;-80
2021/11/11 01:35:51;;;;;;;;;;;;;;;5.90;88.35;101010.44;1612191;86;20977;-81
2021/11/11 01:38:20;;;;;;;;;;;;;;;5.96;88.33;101002.16;1614107;86;20150;-79
2021/11/11 01:40:46;;;;;;;;;;;;;;;5.99;88.12;100999.84;1617074;88;20175;-79
2021/11/11 01:43:12;;;;;;;;;;;;;;;6.04;87.87;100997.25;1613508;88;20161;-81
2021/11/11 01:45:41;;;;;;;;;;;;;;;6.06;87.71;100992.75;1621937;88;20185;-79
2021/11/11 01:48:09;;;;;;;;;;;;;;;6.03;87.70;100987.72;1619576;86;21281;-79
2021/11/11 01:50:34;;;;;;;;;;;;;;;5.95;88.19;100987.39;1613726;88;20148;-86
2021/11/11 01:53:01;;;;;;;;;;;;;;;6.01;88.08;100992.25;1616630;86;20202;-78
2021/11/11 01:55:27;;;;;;;;;;;;;;;6.02;87.94;100993.90;1608765;88;20262;-78
2021/11/11 01:57:52;;;;;;;;;;;;;;;5.86;88.49;100995.88;1613513;86;20544;-78
2021/11/11 02:00:24;;;;;;;;;;;;;;;5.87;88.68;100993.16;1609721;88;21116;-81
2021/11/11 02:02:58;;;;;;;;;;;;;;;5.88;88.67;100992.19;1611483;86;20585;-78
2021/11/11 02:05:25;;;;;;;;;;;;;;;5.54;90.20;100996.27;1609952;86;20377;-78
2021/11/11 02:07:51;;;;;;;;;;;;;;;5.67;89.96;101004.98;1621604;88;20856;-77
2021/11/11 02:10:16;;;;;;;;;;;;;;;5.57;90.41;101009.16;1610857;86;20206;-82
2021/11/11 02:12:42;;;;;;;;;;;;;;;5.52;90.84;101022.56;1611042;86;22066;-89
2021/11/11 02:15:08;;;;;;;;;;;;;;;5.53;90.79;101015.53;1616021;86;20178;-81
2021/11/11 02:17:33;;;;;;;;;;;;;;;5.54;90.69;101019.84;1610694;86;20230;-79
2021/11/11 02:20:00;;;;;;;;;;;;;;;5.57;90.71;101017.02;1616171;86;21165;-81
2021/11/11 02:22:26;;;;;;;;;;;;;;;5.53;90.82;101012.91;1619895;86;20156;-81
2021/11/11 02:24:52;;;;;;;;;;;;;;;5.63;90.23;101007.44;1614028;87;21088;-80
2021/11/11 02:27:17;;;;;;;;;;;;;;;5.71;90.00;101002.99;1606450;87;20471;-87
2021/11/11 02:29:43;;;;;;;;;;;;;;;5.57;90.10;101009.16;1614842;87;20146;-80
2021/11/11 02:32:08;;;;;;;;;;;;;;;5.53;90.44;101006.36;1636566;86;20803;-81
2021/11/11 02:34:34;;;;;;;;;;;;;;;5.61;90.02;100997.54;1631143;86;20162;-80
2021/11/11 02:37:01;;;;;;;;;;;;;;;5.66;89.80;100992.82;1592953;89;21215;-79
2021/11/11 02:39:31;;;;;;;;;;;;;;;5.71;89.61;100990.72;1632844;86;20162;-81
2021/11/11 02:41:58;;;;;;;;;;;;;;;5.84;89.33;100992.51;1627291;86;20143;-83
2021/11/11 02:44:24;;;;;;;;;;;;;;;5.81;89.09;100987.47;1598344;88;20178;-79
2021/11/11 02:46:51;;;;;;;;;;;;;;;5.88;88.90;100996.61;1645275;85;20257;-88
2021/11/11 02:49:17;;;;;;;;;;;;;;;5.91;88.62;100995.09;1647492;85;21183;-78
2021/11/11 02:51:42;;;;;;;;;;;;;;;5.58;89.64;101000.36;1648831;85;20294;-81
2021/11/11 02:54:08;;;;;;;;;;;;;;;5.42;90.75;101004.45;1647429;85;20192;-76
2021/11/11 02:56:33;;;;;;;;;;;;;;;5.57;90.48;100999.98;1652063;85;20795;-82
2021/11/11 02:58:59;;;;;;;;;;;;;;;5.67;90.03;100997.13;1643932;86;20140;-78
2021/11/11 03:01:24;;;;;;;;;;;;;;;5.66;89.88;100999.37;1641525;85;21185;-79
2021/11/11 03:03:50;;;;;;;;;;;;;;;5.75;89.16;101000.06;1645614;85;21043;-78
2021/11/11 03:06:16;;;;;;;;;;;;;;;5.83;89.09;101003.95;1650358;85;20208;-78
2021/11/11 03:08:41;;;;;;;;;;;;;;;5.90;88.72;101006.50;1644035;86;20127;-79
2021/11/11 03:11:07;;;;;;;;;;;;;;;5.93;88.36;101001.91;1622210;86;20254;-78
2021/11/11 03:13:33;;;;;;;;;;;;;;;6.06;87.94;101003.24;1646073;85;20878;-79
2021/11/11 03:15:58;;;;;;;;;;;;;;;6.06;87.60;100998.00;1651044;85;20468;-79
2021/11/11 03:18:25;;;;;;;;;;;;;;;5.98;87.38;100991.14;1645368;85;20216;-81
2021/11/11 03:20:51;;;;;;;;;;;;;;;5.96;87.45;100991.67;1644764;85;20198;-78
2021/11/11 03:23:16;;;;;;;;;;;;;;;5.83;87.80;100997.41;1653183;85;20151;-78
2021/11/11 03:25:42;;;;;;;;;;;;;;;5.86;88.00;100989.33;1646274;85;21966;-79
2021/11/11 03:28:08;;;;;;;;;;;;;;;5.93;87.90;100987.95;1645024;86;20141;-85
2021/11/11 03:30:34;;;;;;;;;;;;;;;5.91;87.78;100993.78;1639311;86;20484;-77
2021/11/11 03:33:00;;;;;;;;;;;;;;;5.98;87.67;100989.84;1629496;86;20869;-81
2021/11/11 03:35:26;;;;;;;;;;;;;;;6.01;87.31;100994.87;1630498;85;20254;-84
2021/11/11 03:37:52;;;;;;;;;;;;;;;5.99;87.15;100999.35;1640173;86;21187;-78
2021/11/11 03:40:20;;;;;;;;;;;;;;;6.05;87.05;100996.31;1633076;86;20160;-82
2021/11/11 03:42:48;;;;;;;;;;;;;;;6.05;86.80;100992.86;1637942;86;20180;-86
2021/11/11 03:45:13;;;;;;;;;;;;;;;6.05;86.61;100983.20;1635182;86;20145;-78
2021/11/11 03:47:39;;;;;;;;;;;;;;;6.06;86.51;100987.52;1636074;86;20154;-77
2021/11/11 03:50:06;;;;;;;;;;;;;;;6.14;86.31;100983.50;1634389;86;21241;-78
2021/11/11 03:52:32;;;;;;;;;;;;;;;6.14;86.13;100979.56;1636436;86;20148;-80
2021/11/11 03:54:58;;;;;;;;;;;;;;;6.14;86.01;100984.36;1636447;86;20288;-80
2021/11/11 03:57:23;;;;;;;;;;;;;;;6.18;86.01;100981.04;1634780;86;20358;-78
2021/11/11 03:59:49;;;;;;;;;;;;;;;6.16;85.87;100979.00;1635538;86;20728;-79
2021/11/11 04:02:15;;;;;;;;;;;;;;;6.08;85.99;100976.44;1635441;86;21989;-85
2021/11/11 04:04:41;;;;;;;;;;;;;;;6.02;86.06;100970.30;1635333;86;20188;-80
2021/11/11 04:07:06;;;;;;;;;;;;;;;6.06;86.16;100974.41;1636436;85;20137;-78
2021/11/11 04:09:32;;;;;;;;;;;;;;;6.06;86.01;100965.22;1636186;86;20747;-78
2021/11/11 04:11:58;;;;;;;;;;;;;;;6.08;85.97;100965.95;1634727;86;20177;-78
2021/11/11 04:14:24;;;;;;;;;;;;;;;6.07;85.78;100970.81;1640243;86;21219;-79
2021/11/11 04:16:50;;;;;;;;;;;;;;;6.10;85.77;100971.91;1636027;86;20254;-87
2021/11/11 04:19:15;;;;;;;;;;;;;;;6.13;85.77;100973.97;1634520;85;20149;-78
2021/11/11 04:21:41;;;;;;;;;;;;;;;6.11;85.70;100974.08;1636531;86;20165;-78
2021/11/11 04:24:07;;;;;;;;;;;;;;;6.08;85.64;100977.74;1635704;86;20149;-84
2021/11/11 04:26:36;;;;;;;;;;;;;;;6.06;85.71;100979.64;1635048;86;21150;-80
2021/11/11 04:29:06;;;;;;;;;;;;;;;6.09;85.57;100984.67;1637633;86;20150;-81
2021/11/11 04:31:36;;;;;;;;;;;;;;;6.02;85.50;100980.80;1631829;85;20165;-79
2021/11/11 04:34:08;;;;;;;;;;;;;;;6.00;85.50;100966.96;1630289;87;20211;-78
2021/11/11 05:03:05;;;;;;;;;;;;;;;5.79;86.20;100929.09;1634885;86;20501;-79
2021/11/11 05:05:25;;;;;;;;;;;;;;;5.87;86.09;100924.14;1635562;86;20180;-87
2021/11/11 05:07:52;;;;;;;;;;;;;;;5.91;85.72;100923.00;1634081;86;20157;-80
2021/11/11 05:10:18;;;;;;;;;;;;;;;5.85;85.61;100926.88;1636805;86;20433;-77
2021/11/11 05:12:44;;;;;;;;;;;;;;;5.87;85.46;100922.38;1638644;86;20252;-76
2021/11/11 05:15:09;;;;;;;;;;;;;;;5.86;85.44;100924.63;1638801;86;20147;-79
2021/11/11 05:17:36;;;;;;;;;;;;;;;5.90;85.38;100924.80;1638813;86;21214;-79
2021/11/11 05:20:01;;;;;;;;;;;;;;;5.93;85.05;100925.89;1631543;86;20219;-80
2021/11/11 05:22:27;;;;;;;;;;;;;;;5.87;85.07;100922.84;1635264;86;20153;-79
2021/11/11 05:24:52;;;;;;;;;;;;;;;5.74;85.07;100907.95;1631877;86;20176;-85
2021/11/11 05:27:22;;;;;;;;;;;;;;;5.85;85.13;100935.22;1633466;86;20538;-84
2021/11/11 05:29:45;;;;;;;;;;;;;;;5.49;86.37;100930.25;1632387;86;20162;-78
2021/11/11 05:32:11;;;;;;;;;;;;;;;5.55;86.42;100936.38;1653451;85;20819;-77
2021/11/11 05:34:37;;;;;;;;;;;;;;;5.47;86.60;100937.35;1658427;85;20157;-78
2021/11/11 05:37:03;;;;;;;;;;;;;;;5.49;86.89;100944.66;1625283;86;20166;-80
2021/11/11 05:39:29;;;;;;;;;;;;;;;5.42;87.22;100931.11;1608239;87;20187;-82
2021/11/11 05:41:54;;;;;;;;;;;;;;;5.48;87.02;100920.70;1622109;86;21019;-78
2021/11/11 05:44:20;;;;;;;;;;;;;;;5.57;86.74;100931.87;1626031;86;20576;-78
2021/11/11 05:46:45;;;;;;;;;;;;;;;5.62;86.50;100936.80;1621337;87;20145;-80
2021/11/11 05:49:11;;;;;;;;;;;;;;;5.57;86.31;100930.56;1656412;85;20181;-80
2021/11/11 05:51:37;;;;;;;;;;;;;;;5.61;86.34;100927.25;1659546;85;20157;-79
2021/11/11 05:54:02;;;;;;;;;;;;;;;5.52;86.61;100931.35;1655900;85;21118;-82
2021/11/11 05:56:28;;;;;;;;;;;;;;;5.58;86.29;100937.48;1656034;85;20167;-79
2021/11/11 05:58:54;;;;;;;;;;;;;;;5.59;86.18;100936.52;1658582;85;20129;-80
2021/11/11 06:01:20;;;;;;;;;;;;;;;5.55;86.20;100942.93;1649485;85;20963;-78
2021/11/11 06:03:46;;;;;;;;;;;;;;;5.38;86.77;100940.97;1651840;85;20157;-77
2021/11/11 06:06:11;;;;;;;;;;;;;;;5.32;87.23;100956.27;1655742;85;21221;-77
2021/11/11 06:08:37;;;;;;;;;;;;;;;5.32;87.26;100954.47;1653541;85;20132;-78
2021/11/11 06:11:02;;;;;;;;;;;;;;;5.33;87.10;100953.98;1657062;85;20152;-80
2021/11/11 06:13:28;;;;;;;;;;;;;;;5.37;86.91;100963.33;1632756;86;20439;-79
2021/11/11 06:15:53;;;;;;;;;;;;;;;5.29;87.37;100963.84;1658721;85;20474;-80
2021/11/11 06:18:21;;;;;;;;;;;;;;;5.34;87.30;100959.13;1652134;85;21911;-79
2021/11/11 06:20:49;;;;;;;;;;;;;;;5.38;87.02;100956.69;1655646;85;20174;-82
2021/11/11 06:23:15;;;;;;;;;;;;;;;5.33;86.98;100957.92;1655647;85;20487;-80
2021/11/11 06:25:40;;;;;;;;;;;;;;;5.44;86.79;100957.20;1653074;85;20507;-78
2021/11/11 06:28:08;;;;;;;;;;;;;;;5.53;86.64;100959.20;1655518;85;20120;-80
2021/11/11 06:30:35;;;;;;;;;;;;;;;5.56;86.52;100961.17;1656641;85;20523;-79
2021/11/11 06:33:00;;;;;;;;;;;;;;;5.60;86.34;100960.96;1626133;85;20455;-80
2021/11/11 06:35:27;;;;;;;;;;;;;;;5.69;85.99;100960.34;1623458;86;20154;-81
2021/11/11 06:37:53;;;;;;;;;;;;;;;5.72;85.70;100963.58;1630184;86;20149;-78
2021/11/11 06:40:18;;;;;;;;;;;;;;;5.77;85.49;100966.37;1628258;86;20147;-79
2021/11/11 06:42:44;;;;;;;;;;;;;;;5.73;85.14;100966.58;1632354;86;21175;-80
2021/11/11 06:45:14;;;;;;;;;;;;;;;5.75;85.42;100965.99;1630114;86;20154;-78
2021/11/11 06:47:40;;;;;;;;;;;;;;;5.73;85.30;100966.58;1630499;86;20144;-78
2021/11/11 06:50:06;;;;;;;;;;;;;;;5.71;85.68;100961.89;1628181;86;20180;-81
2021/11/11 06:52:32;;;;;;;;;;;;;;;5.55;86.17;100958.17;1629874;86;20320;-79
2021/11/11 06:54:57;;;;;;;;;;;;;;;5.57;86.32;100965.92;1627141;86;21182;-78
2021/11/11 06:57:23;;;;;;;;;;;;;;;5.61;86.41;100966.55;1626761;86;20206;-79
2021/11/11 06:59:48;;;;;;;;;;;;;;;5.63;86.28;100972.06;1629380;86;20496;-79
2021/11/11 07:02:14;;;;;;;;;;;;;;;5.56;86.61;100970.79;1629360;86;20310;-78
2021/11/11 07:04:40;;;;;;;;;;;;;;;5.60;86.52;100973.58;1630630;86;20163;-80
2021/11/11 07:07:05;;;;;;;;;;;;;;;5.57;86.92;100976.41;1629024;86;21028;-82
2021/11/11 07:09:31;;;;;;;;;;;;;;;5.70;86.72;100973.34;1626325;86;20170;-80
2021/11/11 07:11:56;;;;;;;;;;;;;;;5.81;86.44;100963.88;1626327;86;20198;-86
2021/11/11 07:14:22;;;;;;;;;;;;;;;5.91;86.15;100958.39;1626839;86;20474;-79
2021/11/11 07:16:47;;;;;;;;;;;;;;;5.89;85.82;100960.29;1629821;86;20133;-79
2021/11/11 07:19:13;;;;;;;;;;;;;;;5.82;85.82;100965.58;1625105;86;21326;-79
2021/11/11 07:21:39;;;;;;;;;;;;;;;5.71;86.24;100969.75;1632856;86;20296;-81
2021/11/11 07:24:05;;;;;;;;;;;;;;;5.61;86.70;100967.86;1624359;86;20174;-82
2021/11/11 07:26:30;;;;;;;;;;;;;;;5.57;87.22;100962.00;1625549;86;20400;-82
2021/11/11 07:28:56;;;;;;;;;;;;;;;5.67;86.87;100961.75;1628353;86;20195;-84
2021/11/11 07:31:24;;;;;;;;;;;;;;;5.68;86.98;100956.86;1626533;86;21110;-78
2021/11/11 07:33:49;;;;;;;;;;;;;;;5.57;87.36;100950.20;1643142;86;20861;-80
2021/11/11 07:36:15;;;;;;;;;;;;;;;5.53;87.78;100957.90;1646361;85;20192;-82
2021/11/11 07:38:41;;;;;;;;;;;;;;;5.52;88.11;100962.31;1650659;85;20136;-81
2021/11/11 07:41:07;;;;;;;;;;;;;;;5.58;88.15;100954.03;1648756;85;20161;-80
2021/11/11 07:43:33;;;;;;;;;;;;;;;5.66;87.87;100953.52;1641209;85;21145;-79
2021/11/11 07:46:04;;;;;;;;;;;;;;;5.75;87.62;100952.89;1640188;86;20178;-85
2021/11/11 07:48:26;;;;;;;;;;;;;;;5.90;87.46;100952.77;1644399;85;20133;-78
2021/11/11 07:50:53;;;;;;;;;;;;;;;5.93;87.11;100949.48;1642444;85;20908;-79
2021/11/11 07:53:18;;;;;;;;;;;;;;;5.89;86.98;100943.25;1648684;85;20198;-79
2021/11/11 07:55:44;;;;;;;;;;;;;;;5.92;87.20;100949.11;1647105;86;21941;-79
2021/11/11 07:58:10;;;;;;;;;;;;;;;6.03;87.27;100951.02;1649830;85;20131;-77
2021/11/11 08:00:38;;;;;;;;;;;;;;;6.14;86.85;100937.61;1647857;85;20161;-79
2021/11/11 08:03:04;;;;;;;;;;;;;;;6.21;86.38;100933.61;1640576;85;20196;-83
2021/11/11 08:05:29;;;;;;;;;;;;;;;6.28;86.19;100938.32;1641476;85;20142;-82
2021/11/11 08:07:55;;;;;;;;;;;;;;;6.33;85.90;100934.06;1647303;85;21079;-81
2021/11/11 08:10:21;;;;;;;;;;;;;;;6.47;85.80;100936.52;1643495;85;20177;-81
2021/11/11 08:12:47;;;;;;;;;;;;;;;6.52;85.47;100939.30;1644082;85;20188;-78
2021/11/11 08:15:12;;;;;;;;;;;;;;;6.54;85.08;100933.46;1639143;86;20117;-78
2021/11/11 08:17:38;;;;;;;;;;;;;;;6.60;85.05;100931.25;1642636;85;20224;-78
2021/11/11 08:20:05;;;;;;;;;;;;;;;6.47;84.97;100943.57;1647427;86;21887;-77
2021/11/11 08:22:31;;;;;;;;;;;;;;;6.61;85.12;100937.33;1643818;86;20200;-79
2021/11/11 08:24:57;;;;;;;;;;;;;;;6.73;85.15;100941.69;1641857;85;20290;-84
2021/11/11 08:27:23;;;;;;;;;;;;;;;6.80;84.67;100940.27;1644837;85;20204;-80
2021/11/11 08:29:50;;;;;;;;;;;;;;;6.82;84.07;100944.95;1651922;85;20205;-81
2021/11/11 08:32:16;;;;;;;;;;;;;;;6.89;84.16;100937.95;1645382;85;21052;-78
2021/11/11 08:34:42;;;;;;;;;;;;;;;6.93;83.88;100936.75;1644917;86;20305;-81
2021/11/11 08:37:08;;;;;;;;;;;;;;;6.95;83.77;100937.49;1647813;85;20151;-80
2021/11/11 08:39:35;;;;;;;;;;;;;;;7.00;83.75;100926.16;1647043;86;20237;-86
2021/11/11 08:42:00;;;;;;;;;;;;;;;7.00;83.67;100932.73;1647116;85;20627;-80
2021/11/11 08:44:26;;;;;;;;;;;;;;;7.08;83.47;100926.91;1646608;86;21109;-85
2021/11/11 08:46:51;;;;;;;;;;;;;;;7.04;83.24;100927.63;1647153;86;20317;-81
2021/11/11 08:49:17;;;;;;;;;;;;;;;7.11;83.54;100916.17;1652789;85;20127;-80
2021/11/11 08:51:43;;;;;;;;;;;;;;;7.24;83.45;100915.63;1645926;85;20230;-79
2021/11/11 08:54:10;;;;;;;;;;;;;;;7.42;83.00;100922.58;1642057;86;20284;-80
2021/11/11 08:56:36;;;;;;;;;;;;;;;7.48;82.63;100921.28;1647731;86;21883;-81
2021/11/11 08:59:02;;;;;;;;;;;;;;;7.49;82.10;100923.80;1648599;85;20200;-80
2021/11/11 09:01:29;;;;;;;;;;;;;;;7.50;82.27;100924.63;1648631;86;20261;-78
2021/11/11 09:03:56;;;;;;;;;;;;;;;7.59;82.05;100917.84;1641774;85;20201;-84
2021/11/11 09:06:21;;;;;;;;;;;;;;;7.74;81.68;100923.23;1651826;85;20205;-83
2021/11/11 09:08:51;;;;;;;;;;;;;;;7.62;81.87;100926.80;1650575;86;21116;-83
2021/11/11 09:11:15;;;;;;;;;;;;;;;7.55;81.61;100930.35;1647415;86;20498;-83
2021/11/11 09:13:41;;;;;;;;;;;;;;;7.68;81.58;100921.90;1646701;85;20155;-82
2021/11/11 09:16:07;;;;;;;;;;;;;;;7.73;81.50;100913.66;1637712;85;20217;-80
2021/11/11 09:18:32;;;;;;;;;;;;;;;7.74;81.55;100914.03;1642391;85;20169;-83
2021/11/11 09:20:58;;;;;;;;;;;;;;;7.87;81.30;100909.47;1649212;85;21116;-81
2021/11/11 09:23:23;;;;;;;;;;;;;;;8.02;81.08;100903.98;1645330;85;20161;-81
2021/11/11 09:25:49;;;;;;;;;;;;;;;8.09;80.98;100907.78;1643408;84;20181;-82
2021/11/11 09:28:15;;;;;;;;;;;;;;;8.17;80.45;100908.03;1648813;85;20217;-87
2021/11/11 09:30:40;;;;;;;;;;;;;;;8.18;80.47;100907.55;1644320;86;20857;-83
2021/11/11 09:33:06;;;;;;;;;;;;;;;8.26;80.33;100912.56;1642893;85;21683;-85
2021/11/11 09:35:32;;;;;;;;;;;;;;;8.37;79.91;100901.15;1642477;85;20203;-82
2021/11/11 09:37:58;;;;;;;;;;;;;;;8.39;79.65;100903.66;1640555;85;20534;-82
2021/11/11 09:40:25;;;;;;;;;;;;;;;8.43;79.61;100891.48;1647374;85;20177;-83
2021/11/11 09:42:51;;;;;;;;;;;;;;;8.46;79.31;100885.14;1645453;86;20579;-81
2021/11/11 09:45:19;;;;;;;;;;;;;;;8.51;79.49;100886.08;1647744;85;22258;-85
2021/11/11 09:47:46;;;;;;;;;;;;;;;8.52;79.26;100884.64;1649074;86;20219;-82
2021/11/11 09:50:12;;;;;;;;;;;;;;;8.59;78.93;100881.88;1653406;85;20212;-80
2021/11/11 09:52:39;;;;;;;;;;;;;;;8.60;79.08;100884.84;1643753;85;20175;-80
2021/11/11 10:00:35;;;;;;;;;;;;;;;8.66;78.39;100897.17;1642686;85;20183;-82
2021/11/11 10:03:01;;;;;;;;;;;;;;;8.71;78.63;100891.05;1642186;85;20199;-81
2021/11/11 10:05:27;;;;;;;;;;;;;;;8.83;78.33;100886.09;1642314;85;20135;-85
2021/11/11 10:07:53;;;;;;;;;;;;;;;8.81;78.44;100878.80;1638756;85;20560;-86
2021/11/11 10:10:30;;;;;;;;;;;;;;;8.78;78.43;100873.30;1643898;85;21014;-83
2021/11/11 10:13:13;;;;;;;;;;;;;;;8.79;78.66;100877.61;1640780;85;20197;-84
2021/11/11 10:16:00;;;;;;;;;;;;;;;8.90;78.49;100876.73;1647690;85;20198;-84
2021/11/11 10:18:39;;;;;;;;;;;;;;;9.01;77.93;100874.52;1645452;85;20665;-80
2021/11/11 10:21:08;;;;;;;;;;;;;;;9.14;77.55;100870.36;1605577;86;20485;-82
2021/11/11 10:23:33;;;;;;;;;;;;;;;9.20;77.53;100867.21;1638098;85;21369;-83
2021/11/11 10:26:33;;;;;;;;;;;;;;;9.32;77.18;100871.45;1649655;85;20162;-82
2021/11/11 10:28:54;;;;;;;;;;;;;;;9.39;77.09;100874.39;1604240;86;20145;-81
2021/11/11 10:31:20;;;;;;;;;;;;;;;9.52;76.64;100877.66;1630552;86;20242;-83
2021/11/11 10:34:07;;;;;;;;;;;;;;;9.58;76.46;100875.45;1634552;86;20500;-83
2021/11/11 10:36:41;;;;;;;;;;;;;;;9.59;76.23;100879.28;1638414;86;21156;-83
2021/11/11 10:39:10;;;;;;;;;;;;;;;9.62;75.94;100872.42;1639065;86;20157;-79
2021/11/11 10:41:36;;;;;;;;;;;;;;;9.72;75.84;100871.13;1633283;86;32633;-84
2021/11/11 10:44:23;;;;;;;;;;;;;;;9.73;75.21;100870.67;1638470;86;20797;-81
2021/11/11 10:46:55;;;;;;;;;;;;;;;9.91;74.96;100874.32;1636309;86;20235;-83
2021/11/11 10:49:27;;;;;;;;;;;;;;;9.83;74.98;100869.71;1621410;86;22266;-83
2021/11/11 10:51:54;;;;;;;;;;;;;;;9.98;74.27;100871.50;1634825;86;20141;-82
2021/11/11 10:54:20;;;;;;;;;;;;;;;9.94;74.43;100860.86;1635829;86;20236;-83
2021/11/11 10:56:46;;;;;;;;;;;;;;;10.09;73.96;100865.78;1634616;86;20162;-84
2021/11/11 10:59:14;;;;;;;;;;;;;;;10.20;73.99;100868.30;1638121;86;20229;-78
2021/11/11 11:01:39;;;;;;;;;;;;;;;10.08;74.02;100862.78;1633152;86;21024;-87
2021/11/11 11:04:05;;;;;;;;;;;;;;;10.15;74.10;100859.96;1634687;86;20145;-84
2021/11/11 11:06:31;;;;;;;;;;;;;;;10.29;73.36;100856.92;1636418;85;20533;-80
2021/11/11 11:08:58;;;;;;;;;;;;;;;10.30;73.14;100858.60;1637807;86;20229;-84
2021/11/11 11:11:30;;;;;;;;;;;;;;;10.23;73.41;100854.83;1632265;86;20673;-85
2021/11/11 11:14:01;;;;;;;;;;;;;;;10.26;73.26;100853.23;1616555;86;21177;-86
2021/11/11 11:16:28;;;;;;;;;;;;;;;10.44;72.63;100856.55;1633645;86;20258;-83
2021/11/11 11:18:57;;;;;;;;;;;;;;;10.35;73.00;100852.45;1633848;86;20207;-83
2021/11/11 11:21:25;;;;;;;;;;;;;;;10.52;72.73;100857.53;1630434;86;21040;-84
2021/11/11 11:23:55;;;;;;;;;;;;;;;10.66;72.38;100853.64;1640794;85;20217;-83
2021/11/11 11:26:28;;;;;;;;;;;;;;;10.55;72.52;100859.90;1631514;86;23098;-84
2021/11/11 11:29:15;;;;;;;;;;;;;;;10.62;72.33;100852.25;1634689;86;20234;-79
2021/11/11 11:31:53;;;;;;;;;;;;;;;10.51;72.41;100852.39;1638815;86;20185;-83
2021/11/11 11:34:21;;;;;;;;;;;;;;;10.57;72.31;100849.20;1630684;86;20233;-82
2021/11/11 11:36:49;;;;;;;;;;;;;;;10.56;72.61;100835.14;1625239;86;20229;-83
2021/11/11 11:39:22;;;;;;;;;;;;;;;10.64;72.57;100841.05;1627673;86;21232;-83
2021/11/11 11:41:47;;;;;;;;;;;;;;;10.58;72.45;100831.89;1623431;86;20178;-82
2021/11/11 11:44:25;;;;;;;;;;;;;;;10.70;72.06;100835.20;1610620;87;20155;-81
2021/11/11 11:46:55;;;;;;;;;;;;;;;10.82;71.78;100838.55;1626552;86;20708;-82
2021/11/11 11:49:22;;;;;;;;;;;;;;;10.83;71.74;100832.77;1626200;87;20240;-84
2021/11/11 11:51:48;;;;;;;;;;;;;;;10.84;71.77;100829.16;1660277;84;21133;-83
2021/11/11 11:54:28;;;;;;;;;;;;;;;10.93;71.61;100823.02;1662285;84;20118;-84
2021/11/11 11:56:52;;;;;;;;;;;;;;;11.03;71.32;100821.20;1659260;84;20152;-83
2021/11/11 11:59:18;;;;;;;;;;;;;;;11.12;71.17;100817.70;1666180;84;20186;-84
2021/11/11 12:04:48;;;;;;;;;;;;;;;11.14;70.95;100818.39;1657119;84;20198;-84
2021/11/11 12:10:08;;;;;;;;;;;;;;;11.10;70.77;100809.06;1659269;84;20196;-83
2021/11/11 12:16:13;;;;;;;;;;;;;;;11.08;71.04;100802.28;1626888;84;20549;-81
2021/11/11 12:29:40;;;;;;;;;;;;;;;11.29;69.73;100795.44;1661086;84;20166;-81
2021/11/11 12:40:18;;;;;;;;;;;;;;;11.62;69.30;100793.20;1641234;85;20195;-83
2021/11/11 12:42:55;;;;;;;;;;;;;;;11.74;68.98;100799.14;1644810;85;20131;-82
2021/11/11 12:45:35;;;;;;;;;;;;;;;11.79;68.54;100800.38;1644770;85;21258;-85
2021/11/11 12:48:15;;;;;;;;;;;;;;;11.74;68.70;100797.82;1649284;85;20188;-82
2021/11/11 12:50:59;;;;;;;;;;;;;;;11.89;68.31;100799.48;1643034;85;20808;-83
2021/11/11 12:53:34;;;;;;;;;;;;;;;11.86;68.13;100801.43;1643459;85;20243;-84
2021/11/11 12:56:13;;;;;;;;;;;;;;;11.86;68.34;100781.58;1646645;85;20338;-80
2021/11/11 12:58:44;;;;;;;;;;;;;;;11.94;68.01;100795.92;1640766;84;21159;-85
2021/11/11 13:01:29;;;;;;;;;;;;;;;11.67;68.54;100798.41;1643393;85;20357;-84
2021/11/11 13:04:03;;;;;;;;;;;;;;;11.78;68.74;100803.99;1644281;85;20261;-87
2021/11/11 13:06:48;;;;;;;;;;;;;;;12.01;68.44;100800.98;1643888;84;20720;-83
2021/11/11 13:09:21;;;;;;;;;;;;;;;12.07;68.11;100812.27;1642597;85;20202;-81
2021/11/11 13:12:06;;;;;;;;;;;;;;;12.05;68.11;100808.12;1645680;85;21127;-82
2021/11/11 13:14:36;;;;;;;;;;;;;;;12.05;68.35;100808.94;1646470;85;20267;-83
2021/11/11 13:17:05;;;;;;;;;;;;;;;12.07;68.14;100809.61;1641267;85;20443;-79
2021/11/11 13:19:36;;;;;;;;;;;;;;;12.04;68.03;100815.20;1640494;85;20326;-83
2021/11/11 13:22:10;;;;;;;;;;;;;;;12.17;67.78;100817.52;1645141;85;20179;-86
2021/11/11 13:24:57;;;;;;;;;;;;;;;12.25;67.41;100811.47;1645178;85;20192;-88
2021/11/11 15:15:21;;;;;;;;;;;;;;;11.05;72.34;100755.81;1600672;88;20206;-77
2021/11/11 15:17:36;;;;;;;;;;;;;;;11.02;72.27;100764.03;1599232;88;20204;-76
2021/11/11 16:01:25;;;;;;;;;;;;;;;9.73;78.27;100763.86;1617065;86;20154;-78
2021/11/11 16:27:34;;;;;;;;;;;;;;;9.11;82.01;100770.50;1652801;86;20129;-79
2021/11/11 16:30:14;;;;;;;;;;;;;;;9.21;81.86;100774.00;1648721;86;20976;-77
2021/11/11 16:32:40;;;;;;;;;;;;;;;9.03;82.56;100778.23;1642209;86;20194;-77
2021/11/11 16:35:07;;;;;;;;;;;;;;;9.09;82.39;100772.41;1632197;86;21215;-77
2021/11/11 16:37:34;;;;;;;;;;;;;;;9.07;82.56;100769.08;1630799;87;20177;-77
2021/11/11 16:40:00;;;;;;;;;;;;;;;8.93;83.22;100765.84;1630562;87;20147;-77